Time;durP1;ratioP1;P1;durP2;ratioP2;P2;SDS_P1;SDS_P2;PMS_P1;PMS_P2;Temp;Humidity;BMP_temperature;BMP_pressure;BME280_temperature;BME280_humidity;BME280_pressure;Samples;Min_cycle;Max_cycle;Signal;HPM_P1;HPM_P2
2022/05/22 00:01:15;;;;;;;7.53;1.65;;;17.40;83.50;;;;;;5053461;28;20131;-75
2022/05/22 00:03:41;;;;;;;5.20;1.42;;;17.40;83.50;;;;;;5053473;28;20033;-75
2022/05/22 00:06:08;;;;;;;6.15;1.88;;;17.30;83.50;;;;;;5053295;28;20029;-75
2022/05/22 00:08:33;;;;;;;6.95;1.50;;;17.30;83.60;;;;;;5053539;28;20112;-75
2022/05/22 00:10:59;;;;;;;7.32;1.67;;;17.20;83.60;;;;;;5053505;28;20116;-75
2022/05/22 00:13:25;;;;;;;5.97;1.60;;;17.20;83.70;;;;;;5053551;28;20052;-75
2022/05/22 00:18:35;;;;;;;4.93;1.50;;;17.20;83.70;;;;;;5052293;28;20393;-75
2022/05/22 00:21:00;;;;;;;3.38;1.08;;;17.30;83.60;;;;;;5053159;28;20029;-75
2022/05/22 00:23:28;;;;;;;4.70;1.48;;;17.30;83.50;;;;;;5053253;28;20047;-75
2022/05/22 00:25:56;;;;;;;5.85;1.45;;;17.30;83.50;;;;;;5053243;28;20060;-75
2022/05/22 00:28:22;;;;;;;5.30;1.20;;;17.30;83.50;;;;;;5053378;28;20074;-75
2022/05/22 00:30:47;;;;;;;5.18;1.85;;;17.30;83.70;;;;;;5053267;28;20029;-75
2022/05/22 00:33:13;;;;;;;6.40;1.48;;;17.30;83.50;;;;;;5053380;28;20021;-75
2022/05/22 00:35:40;;;;;;;6.15;1.98;;;17.30;83.40;;;;;;5052758;28;20033;-75
2022/05/22 00:38:06;;;;;;;7.60;1.85;;;17.30;83.40;;;;;;5053140;28;20031;-75
2022/05/22 00:40:32;;;;;;;6.53;1.52;;;17.30;83.40;;;;;;5053084;28;20048;-75
2022/05/22 00:42:58;;;;;;;6.50;1.65;;;17.20;83.40;;;;;;5053013;28;20025;-75
2022/05/22 00:45:24;;;;;;;4.93;1.58;;;17.20;83.50;;;;;;5052682;28;20033;-75
2022/05/22 00:47:51;;;;;;;8.18;1.70;;;17.20;83.60;;;;;;5052816;28;20053;-75
2022/05/22 00:50:17;;;;;;;4.45;1.40;;;17.20;83.60;;;;;;5052869;28;20046;-75
2022/05/22 00:52:49;;;;;;;7.28;1.50;;;17.00;83.50;;;;;;5053317;28;20045;-75
2022/05/22 00:55:18;;;;;;;7.30;1.70;;;17.00;83.70;;;;;;5053037;28;20025;-75
2022/05/22 00:57:49;;;;;;;8.88;2.08;;;16.90;83.80;;;;;;5053069;28;20029;-75
2022/05/22 01:00:18;;;;;;;9.20;2.30;;;16.80;83.80;;;;;;5053113;28;20025;-75
2022/05/22 01:05:30;;;;;;;5.68;1.65;;;16.70;84.20;;;;;;5052940;28;20076;-75
2022/05/22 01:07:59;;;;;;;7.30;1.70;;;16.60;84.50;;;;;;5052696;28;20049;-75
2022/05/22 01:10:37;;;;;;;8.88;2.17;;;16.60;84.60;;;;;;5052919;28;20053;-75
2022/05/22 01:13:03;;;;;;;6.68;1.67;;;16.50;84.80;;;;;;5052827;28;20098;-75
2022/05/22 01:15:29;;;;;;;8.10;1.63;;;16.50;84.90;;;;;;5052383;28;20055;-75
2022/05/22 01:17:54;;;;;;;5.28;1.40;;;16.50;84.80;;;;;;5052580;28;20022;-75
2022/05/22 01:20:20;;;;;;;7.00;1.83;;;16.60;84.90;;;;;;5052841;28;20029;-75
2022/05/22 01:22:46;;;;;;;7.03;2.08;;;16.50;84.90;;;;;;5052408;28;20070;-75
2022/05/22 01:25:12;;;;;;;6.97;1.80;;;16.50;85.10;;;;;;5052756;28;20033;-75
2022/05/22 01:27:38;;;;;;;7.47;1.98;;;16.40;85.10;;;;;;5052578;28;20032;-75
2022/05/22 01:30:09;;;;;;;10.23;2.30;;;16.40;85.60;;;;;;5054309;28;20491;-75
2022/05/22 01:32:35;;;;;;;8.40;2.08;;;16.40;85.70;;;;;;5056168;28;20039;-75
2022/05/22 01:35:01;;;;;;;6.88;2.20;;;16.20;85.80;;;;;;5056203;28;20036;-75
2022/05/22 01:37:27;;;;;;;6.50;2.63;;;16.10;86.30;;;;;;5055958;28;20021;-75
2022/05/22 01:39:52;;;;;;;5.57;1.77;;;16.10;86.40;;;;;;5056003;28;20108;-75
2022/05/22 01:42:18;;;;;;;9.23;2.40;;;16.20;86.40;;;;;;5056240;28;20124;-75
2022/05/22 01:44:44;;;;;;;8.70;2.10;;;16.20;86.30;;;;;;5055808;28;20033;-75
2022/05/22 01:47:09;;;;;;;7.65;2.40;;;16.20;86.40;;;;;;5055722;28;20045;-74
2022/05/22 01:49:35;;;;;;;6.95;2.08;;;16.10;86.80;;;;;;5055541;28;20028;-75
2022/05/22 01:52:00;;;;;;;5.38;1.27;;;16.00;87.00;;;;;;5055745;28;20036;-75
2022/05/22 01:54:26;;;;;;;5.20;1.80;;;16.10;87.10;;;;;;5055934;28;20017;-75
2022/05/22 01:56:52;;;;;;;11.43;2.38;;;16.20;87.10;;;;;;5055935;28;20029;-75
2022/05/22 01:59:17;;;;;;;7.10;2.20;;;16.20;86.80;;;;;;5055987;28;20025;-75
2022/05/22 02:01:43;;;;;;;4.35;1.50;;;16.10;87.10;;;;;;5055447;28;20078;-75
2022/05/22 02:04:08;;;;;;;6.55;1.90;;;16.20;87.10;;;;;;5055483;28;20053;-75
2022/05/22 02:06:34;;;;;;;9.10;2.60;;;16.30;87.40;;;;;;5055400;28;20040;-75
2022/05/22 02:09:00;;;;;;;7.28;2.42;;;16.30;87.40;;;;;;5055655;28;20017;-75
2022/05/22 02:11:26;;;;;;;9.85;2.70;;;16.30;86.70;;;;;;5055462;28;20035;-75
2022/05/22 02:13:51;;;;;;;9.95;2.95;;;16.10;86.70;;;;;;5055577;28;20115;-75
2022/05/22 02:16:17;;;;;;;9.27;2.78;;;15.90;87.50;;;;;;5055569;28;20060;-75
2022/05/22 02:18:43;;;;;;;10.25;3.00;;;15.70;88.20;;;;;;5055306;28;20505;-75
2022/05/22 02:21:09;;;;;;;7.88;2.40;;;15.50;88.60;;;;;;5055451;28;20033;-75
2022/05/22 02:23:36;;;;;;;6.30;2.20;;;15.50;88.90;;;;;;5055430;28;20060;-75
2022/05/22 02:26:02;;;;;;;7.60;2.10;;;15.50;88.70;;;;;;5055257;28;20082;-75
2022/05/22 02:28:28;;;;;;;7.43;2.80;;;15.40;88.90;;;;;;5055219;28;20032;-75
2022/05/22 02:31:02;;;;;;;7.88;2.50;;;15.30;89.40;;;;;;5054719;28;20025;-75
2022/05/22 02:33:28;;;;;;;6.68;2.80;;;15.10;89.60;;;;;;5055416;28;20029;-75
2022/05/22 02:35:53;;;;;;;7.40;2.40;;;15.10;89.90;;;;;;5054957;28;20358;-75
2022/05/22 02:38:19;;;;;;;8.73;2.40;;;15.10;90.00;;;;;;5055223;28;20028;-75
2022/05/22 02:40:45;;;;;;;6.70;2.53;;;15.00;90.00;;;;;;5054358;28;20464;-75
2022/05/22 02:43:11;;;;;;;8.88;2.67;;;15.00;90.10;;;;;;5054540;28;20021;-75
2022/05/22 02:45:39;;;;;;;6.53;2.92;;;15.00;90.20;;;;;;5054506;28;20430;-75
2022/05/22 02:48:05;;;;;;;11.13;3.30;;;15.00;90.20;;;;;;5054579;28;20083;-75
2022/05/22 02:50:32;;;;;;;9.77;3.03;;;14.90;90.20;;;;;;5054938;28;20434;-75
2022/05/22 02:52:58;;;;;;;6.93;2.72;;;14.80;90.40;;;;;;5054860;28;20029;-75
2022/05/22 02:55:24;;;;;;;7.00;2.80;;;14.70;90.60;;;;;;5054645;28;20487;-75
2022/05/22 02:57:49;;;;;;;8.43;2.80;;;14.60;90.70;;;;;;5054560;28;20036;-75
2022/05/22 03:00:30;;;;;;;5.95;2.60;;;14.60;90.80;;;;;;5054743;28;20029;-75
2022/05/22 03:02:57;;;;;;;9.45;3.22;;;14.70;91.00;;;;;;5054734;28;20155;-75
2022/05/22 03:05:25;;;;;;;6.00;2.40;;;14.70;90.90;;;;;;5054539;28;20025;-75
2022/05/22 03:07:51;;;;;;;7.07;2.75;;;14.70;90.90;;;;;;5054476;28;20025;-75
2022/05/22 03:10:19;;;;;;;7.03;2.40;;;14.70;90.90;;;;;;5054191;28;20032;-75
2022/05/22 03:12:45;;;;;;;11.75;3.35;;;14.70;91.00;;;;;;5054570;28;20159;-75
2022/05/22 03:15:13;;;;;;;5.05;1.80;;;14.80;91.00;;;;;;5054167;28;20476;-75
2022/05/22 03:17:38;;;;;;;4.97;2.30;;;14.80;91.00;;;;;;5054087;28;20029;-75
2022/05/22 03:20:05;;;;;;;10.02;2.70;;;14.90;90.80;;;;;;5053931;28;20025;-75
2022/05/22 03:22:31;;;;;;;7.57;3.05;;;15.00;90.70;;;;;;5054287;28;20427;-75
2022/05/22 03:24:57;;;;;;;8.63;2.80;;;14.90;90.60;;;;;;5054068;28;20112;-75
2022/05/22 03:27:23;;;;;;;7.28;2.50;;;14.90;90.60;;;;;;5054084;28;20421;-75
2022/05/22 03:29:49;;;;;;;10.05;2.70;;;14.90;90.60;;;;;;5054127;28;20384;-75
2022/05/22 03:32:15;;;;;;;8.07;3.00;;;14.90;90.60;;;;;;5054083;28;20169;-75
2022/05/22 03:34:42;;;;;;;9.32;3.05;;;14.80;90.60;;;;;;5054088;28;20540;-75
2022/05/22 03:37:07;;;;;;;6.85;2.65;;;14.60;90.70;;;;;;5053929;28;20048;-75
2022/05/22 03:39:33;;;;;;;8.10;2.90;;;14.50;91.10;;;;;;5053724;28;20350;-75
2022/05/22 03:41:59;;;;;;;8.63;2.90;;;14.40;91.30;;;;;;5053660;28;20058;-75
2022/05/22 03:44:25;;;;;;;6.82;2.72;;;14.40;91.40;;;;;;5053313;28;20028;-75
2022/05/22 03:46:51;;;;;;;7.63;2.83;;;14.40;91.40;;;;;;5053578;28;20049;-75
2022/05/22 03:49:16;;;;;;;4.22;1.77;;;14.40;91.40;;;;;;5053918;28;20017;-75
2022/05/22 03:51:42;;;;;;;8.65;2.45;;;14.40;91.50;;;;;;5053665;28;20487;-75
2022/05/22 03:54:09;;;;;;;6.07;2.72;;;14.50;91.50;;;;;;5053483;28;20025;-75
2022/05/22 03:56:35;;;;;;;8.75;2.35;;;14.60;91.30;;;;;;5053555;28;20158;-75
2022/05/22 03:59:02;;;;;;;6.47;2.83;;;14.60;91.10;;;;;;5053677;28;20025;-75
2022/05/22 04:01:28;;;;;;;7.35;2.65;;;14.60;91.00;;;;;;5053637;28;20104;-75
2022/05/22 04:03:53;;;;;;;8.50;2.45;;;14.60;91.00;;;;;;5053453;28;20112;-75
2022/05/22 04:06:19;;;;;;;10.73;2.85;;;14.60;91.10;;;;;;5053602;28;20043;-75
2022/05/22 04:08:45;;;;;;;9.35;2.90;;;14.60;91.10;;;;;;5053220;28;20447;-75
2022/05/22 04:11:13;;;;;;;7.22;3.13;;;14.60;91.10;;;;;;5053390;28;20035;-75
2022/05/22 04:13:40;;;;;;;9.30;2.85;;;14.50;91.20;;;;;;5053070;28;20780;-75
2022/05/22 04:16:06;;;;;;;7.93;3.00;;;14.40;91.30;;;;;;5053241;28;20021;-75
2022/05/22 04:18:32;;;;;;;7.57;2.60;;;14.50;91.30;;;;;;5053462;28;20108;-75
2022/05/22 04:20:58;;;;;;;10.05;2.90;;;14.60;91.30;;;;;;5053576;28;20108;-75
2022/05/22 04:26:08;;;;;;;7.07;2.10;;;14.70;91.20;;;;;;5052911;28;20043;-75
2022/05/22 04:28:34;;;;;;;8.75;2.50;;;14.80;91.10;;;;;;5053118;28;20052;-75
2022/05/22 04:31:03;;;;;;;7.75;1.88;;;15.00;91.00;;;;;;5053027;28;20025;-75
2022/05/22 04:33:29;;;;;;;5.03;1.75;;;15.10;91.00;;;;;;5053425;28;20376;-75
2022/05/22 04:35:55;;;;;;;5.70;1.63;;;15.30;91.00;;;;;;5052818;28;20503;-75
2022/05/22 04:38:21;;;;;;;9.15;1.95;;;15.40;90.80;;;;;;5053032;28;20025;-75
2022/05/22 04:40:58;;;;;;;7.00;2.40;;;15.50;90.70;;;;;;5052876;28;20028;-75
2022/05/22 04:43:25;;;;;;;5.43;1.70;;;15.60;90.60;;;;;;5053220;28;20357;-75
2022/05/22 04:45:51;;;;;;;8.07;2.05;;;15.60;90.40;;;;;;5052950;28;20040;-75
2022/05/22 04:48:17;;;;;;;5.72;2.20;;;15.70;90.30;;;;;;5052530;28;20090;-75
2022/05/22 04:50:47;;;;;;;5.55;1.63;;;15.80;90.20;;;;;;5053172;28;20033;-75
2022/05/22 04:53:14;;;;;;;4.03;1.77;;;15.90;90.20;;;;;;5053061;28;20024;-75
2022/05/22 04:55:40;;;;;;;6.60;2.35;;;15.90;90.10;;;;;;5053020;28;20036;-75
2022/05/22 04:58:06;;;;;;;6.88;2.63;;;15.90;90.00;;;;;;5052835;28;20384;-75
2022/05/22 05:00:31;;;;;;;7.22;2.30;;;16.00;90.00;;;;;;5052415;28;20025;-75
2022/05/22 05:02:58;;;;;;;7.32;2.67;;;16.00;89.90;;;;;;5053057;28;20106;-75
2022/05/22 05:05:24;;;;;;;7.45;2.75;;;16.00;89.60;;;;;;5055146;28;20037;-75
2022/05/22 05:07:49;;;;;;;6.93;2.70;;;16.00;89.30;;;;;;5056762;28;20021;-75
2022/05/22 05:10:15;;;;;;;8.48;2.60;;;16.00;89.30;;;;;;5056636;28;20112;-75
2022/05/22 05:12:42;;;;;;;8.25;2.58;;;16.10;89.50;;;;;;5056716;28;20025;-75
2022/05/22 05:15:11;;;;;;;6.28;2.13;;;16.10;89.40;;;;;;5056520;28;20028;-75
2022/05/22 05:17:40;;;;;;;8.10;3.17;;;16.10;89.50;;;;;;5056554;28;20047;-75
2022/05/22 05:20:06;;;;;;;8.30;3.17;;;16.10;89.50;;;;;;5056457;28;20020;-75
2022/05/22 05:22:32;;;;;;;8.50;2.97;;;16.10;89.50;;;;;;5056205;28;20120;-75
2022/05/22 05:24:59;;;;;;;8.65;3.70;;;16.20;89.50;;;;;;5056148;28;20112;-75
2022/05/22 05:27:25;;;;;;;8.55;2.72;;;16.20;89.40;;;;;;5056197;28;20543;-75
2022/05/22 05:29:50;;;;;;;8.50;3.08;;;16.30;89.30;;;;;;5056604;28;20113;-75
2022/05/22 05:32:20;;;;;;;8.68;3.25;;;16.30;89.10;;;;;;5056121;28;20480;-75
2022/05/22 05:34:46;;;;;;;8.45;2.97;;;16.30;88.60;;;;;;5056004;28;20025;-75
2022/05/22 05:37:11;;;;;;;8.40;3.50;;;16.40;88.40;;;;;;5055993;28;20444;-75
2022/05/22 05:39:37;;;;;;;9.35;3.78;;;16.40;88.50;;;;;;5056323;28;20025;-75
2022/05/22 05:42:03;;;;;;;9.00;3.65;;;16.40;88.70;;;;;;5056256;28;20032;-75
2022/05/22 05:44:29;;;;;;;8.18;3.30;;;16.40;88.70;;;;;;5055693;28;20064;-75
2022/05/22 05:46:55;;;;;;;8.52;3.47;;;16.40;88.80;;;;;;5055730;28;20065;-75
2022/05/22 05:49:20;;;;;;;8.60;3.17;;;16.40;88.70;;;;;;5055735;28;20495;-75
2022/05/22 05:51:46;;;;;;;7.65;3.10;;;16.40;88.50;;;;;;5055758;28;20032;-75
2022/05/22 05:54:11;;;;;;;8.52;3.53;;;16.40;88.50;;;;;;5055950;28;20063;-75
2022/05/22 05:56:41;;;;;;;10.80;3.50;;;16.40;88.50;;;;;;5055443;28;20457;-75
2022/05/22 05:59:07;;;;;;;8.98;3.15;;;16.40;88.60;;;;;;5055924;28;20036;-75
2022/05/22 06:01:34;;;;;;;7.72;3.47;;;16.40;88.60;;;;;;5055911;28;20384;-75
2022/05/22 06:04:01;;;;;;;10.38;3.35;;;16.50;88.60;;;;;;5055611;28;20039;-75
2022/05/22 06:06:27;;;;;;;10.60;3.28;;;16.60;88.50;;;;;;5055557;28;20086;-75
2022/05/22 06:08:53;;;;;;;8.15;3.05;;;16.60;88.10;;;;;;5055384;28;20021;-75
2022/05/22 06:11:19;;;;;;;11.20;3.08;;;16.60;87.60;;;;;;5055796;28;20423;-75
2022/05/22 06:13:44;;;;;;;6.15;2.75;;;16.60;87.60;;;;;;5055420;28;20107;-75
2022/05/22 06:16:11;;;;;;;7.50;2.72;;;16.70;87.60;;;;;;5054292;28;20033;-75
2022/05/22 06:18:37;;;;;;;7.35;2.65;;;16.70;87.60;;;;;;5055222;28;20021;-75
2022/05/22 06:21:15;;;;;;;6.95;2.30;;;16.80;87.40;;;;;;5054844;28;20040;-75
2022/05/22 06:23:41;;;;;;;7.15;2.45;;;16.90;87.10;;;;;;5055065;28;20384;-75
2022/05/22 06:26:08;;;;;;;6.97;2.17;;;16.90;86.80;;;;;;5055252;28;20036;-75
2022/05/22 06:28:34;;;;;;;8.95;1.90;;;17.00;86.50;;;;;;5055330;28;20033;-75
2022/05/22 06:31:00;;;;;;;6.82;1.55;;;17.00;86.40;;;;;;5055158;28;20369;-75
2022/05/22 06:33:25;;;;;;;9.90;2.13;;;17.20;86.70;;;;;;5054890;28;20023;-75
2022/05/22 06:35:51;;;;;;;9.18;2.10;;;17.30;86.20;;;;;;5054873;28;20025;-75
2022/05/22 06:41:09;;;;;;;6.72;1.40;;;17.40;85.50;;;;;;5054780;28;20499;-75
2022/05/22 06:43:34;;;;;;;7.60;1.77;;;17.30;85.00;;;;;;5054646;28;20036;-75
2022/05/22 06:46:00;;;;;;;8.07;2.00;;;17.40;85.10;;;;;;5054473;28;20032;-75
2022/05/22 06:48:26;;;;;;;6.80;1.63;;;17.50;85.90;;;;;;5054446;28;20049;-75
2022/05/22 06:50:52;;;;;;;5.53;1.58;;;17.50;86.00;;;;;;5054904;28;20033;-75
2022/05/22 06:53:18;;;;;;;4.18;1.30;;;17.50;86.20;;;;;;5054870;28;20051;-75
2022/05/22 06:55:43;;;;;;;6.78;1.88;;;17.60;86.80;;;;;;5054377;28;20021;-75
2022/05/22 06:58:09;;;;;;;11.02;2.22;;;17.60;86.00;;;;;;5054425;28;20028;-75
2022/05/22 07:00:35;;;;;;;9.63;2.15;;;17.60;85.10;;;;;;5054625;28;20393;-75
2022/05/22 07:03:01;;;;;;;8.18;2.58;;;17.70;84.80;;;;;;5054672;28;20025;-75
2022/05/22 07:05:27;;;;;;;10.73;2.10;;;17.70;84.60;;;;;;5054085;28;20037;-75
2022/05/22 07:07:52;;;;;;;7.95;2.05;;;17.70;84.40;;;;;;5054266;28;20476;-75
2022/05/22 07:10:19;;;;;;;12.13;2.22;;;17.80;85.90;;;;;;5054068;28;20425;-75
2022/05/22 07:12:44;;;;;;;7.15;1.73;;;17.80;86.50;;;;;;5054381;28;20025;-75
2022/05/22 07:15:11;;;;;;;7.15;1.85;;;17.80;86.50;;;;;;5054388;28;20021;-75
2022/05/22 07:17:38;;;;;;;7.90;1.98;;;17.90;87.20;;;;;;5054208;28;20017;-75
2022/05/22 07:20:05;;;;;;;6.82;1.83;;;17.90;85.20;;;;;;5054088;28;20033;-75
2022/05/22 07:22:30;;;;;;;9.10;1.83;;;18.00;85.70;;;;;;5053866;28;20032;-75
2022/05/22 07:24:56;;;;;;;10.05;2.08;;;18.10;87.80;;;;;;5053832;28;20108;-75
2022/05/22 07:27:22;;;;;;;10.43;1.98;;;18.10;86.30;;;;;;5053412;28;20070;-75
2022/05/22 07:29:48;;;;;;;6.80;1.80;;;18.30;86.50;;;;;;5054117;28;20133;-75
2022/05/22 07:32:14;;;;;;;8.07;1.35;;;18.30;85.80;;;;;;5053531;28;20021;-75
2022/05/22 07:34:42;;;;;;;7.10;2.13;;;18.40;86.00;;;;;;5053991;28;20033;-75
2022/05/22 07:37:09;;;;;;;8.77;2.20;;;18.50;86.20;;;;;;5053943;28;20029;-75
2022/05/22 07:39:35;;;;;;;7.32;1.48;;;18.60;86.30;;;;;;5053899;28;20028;-75
2022/05/22 07:42:01;;;;;;;7.70;1.67;;;18.60;83.00;;;;;;5053507;28;20024;-75
2022/05/22 07:44:26;;;;;;;7.43;1.80;;;18.60;82.50;;;;;;5053497;28;20028;-75
2022/05/22 07:46:52;;;;;;;6.75;1.77;;;18.70;82.50;;;;;;5053299;28;20045;-75
2022/05/22 07:52:09;;;;;;;5.60;1.33;;;18.90;79.90;;;;;;5054003;28;20479;-75
2022/05/22 07:54:37;;;;;;;4.22;1.25;;;19.00;78.70;;;;;;5053434;28;20025;-75
2022/05/22 07:57:04;;;;;;;4.95;1.00;;;19.00;80.10;;;;;;5053359;28;20037;-75
2022/05/22 07:59:34;;;;;;;6.32;1.52;;;19.00;77.30;;;;;;5053629;28;20025;-75
2022/05/22 08:02:00;;;;;;;9.13;1.77;;;19.10;76.90;;;;;;5053299;28;20025;-75
2022/05/22 08:04:26;;;;;;;9.52;1.98;;;19.10;76.40;;;;;;5053225;28;20100;-75
2022/05/22 08:06:51;;;;;;;6.30;1.20;;;19.20;76.70;;;;;;5053405;28;20040;-75
2022/05/22 08:09:17;;;;;;;6.18;1.23;;;19.30;76.90;;;;;;5053466;28;20025;-75
2022/05/22 08:11:43;;;;;;;6.80;1.08;;;19.40;76.60;;;;;;5053165;28;20032;-75
2022/05/22 08:14:09;;;;;;;6.47;0.95;;;19.50;74.80;;;;;;5053160;28;20036;-75
2022/05/22 08:16:34;;;;;;;6.25;1.00;;;19.50;72.30;;;;;;5052887;28;20021;-75
2022/05/22 08:19:00;;;;;;;6.03;0.82;;;19.60;71.30;;;;;;5053390;28;20028;-75
2022/05/22 08:21:25;;;;;;;5.65;1.42;;;19.70;72.50;;;;;;5052986;28;20021;-75
2022/05/22 08:23:51;;;;;;;4.22;0.90;;;19.80;73.20;;;;;;5053267;28;20099;-75
2022/05/22 08:26:16;;;;;;;7.75;0.85;;;19.90;72.30;;;;;;5053251;28;20056;-75
2022/05/22 08:28:42;;;;;;;4.53;0.93;;;20.00;72.50;;;;;;5052654;28;20025;-75
2022/05/22 08:31:08;;;;;;;6.65;0.80;;;20.10;72.10;;;;;;5052792;28;20033;-75
2022/05/22 08:33:34;;;;;;;6.10;0.95;;;20.00;71.60;;;;;;5052735;28;20029;-75
2022/05/22 08:36:00;;;;;;;7.78;1.63;;;20.10;71.20;;;;;;5052878;28;20037;-75
2022/05/22 08:38:25;;;;;;;7.93;1.60;;;20.20;71.80;;;;;;5052476;28;20021;-75
2022/05/22 08:41:02;;;;;;;6.75;0.82;;;20.30;72.90;;;;;;5056457;28;20066;-75
2022/05/22 08:43:56;;;;;;;5.93;0.80;;;20.40;72.40;;;;;;5057248;28;20429;-75
2022/05/22 08:46:42;;;;;;;6.35;1.10;;;20.50;70.20;;;;;;5056331;28;20049;-75
2022/05/22 08:49:23;;;;;;;5.55;1.13;;;20.70;70.80;;;;;;5049110;28;20392;-75
2022/05/22 08:51:53;;;;;;;4.95;1.10;;;20.80;70.90;;;;;;5057155;28;20029;-75
2022/05/22 08:54:34;;;;;;;5.40;0.77;;;20.90;69.80;;;;;;5056466;28;20495;-75
2022/05/22 08:59:55;;;;;;;3.60;0.80;;;20.90;67.60;;;;;;5056385;28;20088;-75
2022/05/22 09:02:23;;;;;;;3.83;0.68;;;21.00;68.20;;;;;;5056865;28;20021;-75
2022/05/22 09:04:49;;;;;;;4.30;0.82;;;21.00;67.10;;;;;;5056183;28;20024;-75
2022/05/22 09:07:39;;;;;;;3.55;0.80;;;21.10;67.50;;;;;;5056611;28;20040;-75
2022/05/22 09:10:09;;;;;;;7.90;1.08;;;21.20;66.90;;;;;;5056614;28;20044;-75
2022/05/22 09:12:46;;;;;;;5.50;1.05;;;21.10;66.40;;;;;;5056565;28;20025;-75
2022/05/22 09:15:19;;;;;;;6.95;0.88;;;21.20;67.30;;;;;;5055840;28;20021;-75
2022/05/22 09:18:11;;;;;;;6.30;1.08;;;21.30;66.20;;;;;;5056042;28;20485;-75
2022/05/22 09:20:59;;;;;;;7.95;1.10;;;21.30;66.70;;;;;;5056504;28;20047;-75
2022/05/22 09:23:33;;;;;;;4.18;0.63;;;21.40;66.30;;;;;;5056247;28;20021;-75
2022/05/22 09:26:08;;;;;;;3.90;0.60;;;21.50;64.50;;;;;;5056072;28;20037;-75
2022/05/22 09:29:03;;;;;;;8.20;0.98;;;21.60;64.00;;;;;;5055866;28;20047;-75
2022/05/22 09:31:47;;;;;;;6.32;0.77;;;21.60;63.40;;;;;;5055992;28;20044;-75
2022/05/22 09:34:16;;;;;;;5.03;0.85;;;21.60;64.80;;;;;;5056046;28;20025;-75
2022/05/22 09:37:05;;;;;;;4.10;0.80;;;21.60;63.70;;;;;;5055811;28;20074;-75
2022/05/22 09:39:48;;;;;;;7.20;0.85;;;21.80;64.20;;;;;;5055658;28;20027;-75
2022/05/22 09:42:32;;;;;;;5.60;0.85;;;22.00;63.60;;;;;;5055963;28;20035;-75
2022/05/22 09:45:18;;;;;;;6.32;1.02;;;22.00;63.20;;;;;;5055543;28;20476;-75
2022/05/22 09:48:10;;;;;;;6.00;0.90;;;22.10;63.10;;;;;;5055527;28;20057;-74
2022/05/22 09:50:48;;;;;;;4.95;1.00;;;22.20;63.30;;;;;;5055166;28;20017;-74
2022/05/22 09:53:39;;;;;;;8.40;1.50;;;22.20;63.50;;;;;;5055557;28;20053;-74
2022/05/22 09:56:20;;;;;;;5.00;1.30;;;22.20;63.80;;;;;;5055801;28;20021;-74
2022/05/22 09:59:00;;;;;;;6.38;1.05;;;22.30;63.30;;;;;;5055768;28;20029;-74
2022/05/22 10:01:36;;;;;;;9.00;0.98;;;22.10;62.00;;;;;;5055431;28;20036;-74
2022/05/22 10:04:21;;;;;;;4.35;0.93;;;22.00;63.30;;;;;;5055751;28;20025;-74
2022/05/22 10:07:12;;;;;;;3.42;0.80;;;22.20;63.80;;;;;;5055490;28;20445;-74
2022/05/22 10:09:58;;;;;;;6.47;1.10;;;22.20;62.90;;;;;;5055366;28;20029;-74
2022/05/22 10:12:28;;;;;;;5.32;1.20;;;22.40;63.20;;;;;;5055357;28;20472;-75
2022/05/22 10:15:03;;;;;;;4.07;0.70;;;22.50;62.80;;;;;;5055001;28;20435;-74
2022/05/22 10:17:58;;;;;;;4.88;1.00;;;22.50;61.90;;;;;;5055612;28;20079;-75
2022/05/22 10:20:35;;;;;;;3.90;0.80;;;22.60;61.50;;;;;;5055070;28;20108;-75
2022/05/22 10:23:11;;;;;;;6.05;1.00;;;22.60;60.80;;;;;;5054910;28;20491;-75
2022/05/22 10:25:55;;;;;;;5.82;0.98;;;22.70;60.80;;;;;;5054832;28;20480;-75
2022/05/22 10:28:31;;;;;;;7.93;1.30;;;22.80;62.90;;;;;;5054837;28;20017;-75
2022/05/22 10:31:09;;;;;;;6.80;1.00;;;23.00;61.10;;;;;;5055256;28;20036;-75
2022/05/22 10:33:56;;;;;;;4.30;0.90;;;23.00;61.80;;;;;;5055203;28;20026;-75
2022/05/22 10:36:27;;;;;;;6.93;1.33;;;23.20;59.80;;;;;;5055101;28;20032;-75
2022/05/22 10:39:10;;;;;;;5.47;1.45;;;23.30;60.30;;;;;;5055164;28;20029;-75
2022/05/22 10:44:53;;;;;;;5.13;1.05;;;23.20;59.00;;;;;;5034979;28;20056;-75
2022/05/22 10:47:34;;;;;;;5.07;1.55;;;23.30;59.30;;;;;;5054299;28;20076;-75
2022/05/22 10:50:11;;;;;;;5.22;1.20;;;23.40;59.40;;;;;;5054671;28;20112;-75
2022/05/22 10:52:37;;;;;;;3.53;1.10;;;23.50;59.70;;;;;;5054547;28;20017;-75
2022/05/22 10:55:15;;;;;;;4.25;0.90;;;23.50;58.80;;;;;;5054751;28;20013;-75
2022/05/22 10:57:40;;;;;;;6.32;0.60;;;23.60;58.10;;;;;;5054387;28;20444;-75
2022/05/22 11:00:17;;;;;;;3.15;0.60;;;23.60;58.30;;;;;;5054442;28;20029;-75
2022/05/22 11:02:43;;;;;;;5.25;0.98;;;23.70;57.80;;;;;;5053896;28;20094;-75
2022/05/22 11:05:34;;;;;;;4.28;0.52;;;23.70;56.20;;;;;;5054096;28;20075;-75
2022/05/22 11:08:00;;;;;;;6.73;0.90;;;23.70;55.20;;;;;;5051972;28;20051;-75
2022/05/22 11:10:27;;;;;;;4.32;0.50;;;23.70;54.40;;;;;;5053844;28;20025;-75
2022/05/22 11:13:11;;;;;;;3.72;0.80;;;23.70;55.60;;;;;;5054021;28;20481;-75
2022/05/22 11:15:39;;;;;;;3.95;0.93;;;23.70;56.60;;;;;;5054433;28;20443;-75
2022/05/22 11:18:09;;;;;;;3.22;0.50;;;23.70;55.20;;;;;;5054202;28;20063;-75
2022/05/22 11:20:38;;;;;;;4.35;0.80;;;23.70;54.90;;;;;;5053851;28;20444;-75
2022/05/22 11:23:17;;;;;;;6.45;1.10;;;23.70;55.60;;;;;;5053594;28;20549;-75
2022/05/22 11:26:29;;;;;;;3.33;0.70;;;23.70;55.40;;;;;;5053659;28;20439;-75
2022/05/22 11:28:54;;;;;;;8.32;0.70;;;23.70;56.00;;;;;;5048449;28;20047;-75
2022/05/22 11:31:34;;;;;;;4.90;0.65;;;23.70;55.40;;;;;;5053898;28;20029;-75
2022/05/22 11:34:18;;;;;;;5.03;1.00;;;23.70;55.70;;;;;;5053743;28;20021;-75
2022/05/22 11:36:56;;;;;;;7.15;0.77;;;23.70;57.00;;;;;;5054018;28;20018;-75
2022/05/22 11:39:30;;;;;;;5.93;1.00;;;23.80;55.80;;;;;;5053795;28;20033;-75
2022/05/22 11:42:14;;;;;;;5.88;1.08;;;24.00;55.00;;;;;;5053991;28;20044;-75
2022/05/22 11:45:00;;;;;;;3.42;0.70;;;24.20;56.70;;;;;;5053380;28;20471;-75
2022/05/22 11:47:28;;;;;;;5.55;1.02;;;24.20;56.20;;;;;;5053606;28;20098;-75
2022/05/22 11:50:28;;;;;;;5.38;1.33;;;24.30;57.30;;;;;;5053432;28;20028;-75
2022/05/22 11:53:21;;;;;;;3.88;1.05;;;24.20;54.30;;;;;;5053614;28;20025;-75
2022/05/22 11:56:08;;;;;;;4.28;0.95;;;24.20;55.90;;;;;;5053608;28;20063;-75
2022/05/22 11:58:39;;;;;;;5.32;1.35;;;24.30;55.00;;;;;;5052966;28;20028;-75
2022/05/22 12:01:16;;;;;;;6.05;1.35;;;24.40;54.70;;;;;;5053494;28;20043;-75
2022/05/22 12:04:12;;;;;;;3.80;1.42;;;24.40;54.60;;;;;;5053315;28;20028;-76
2022/05/22 12:07:05;;;;;;;4.18;1.35;;;24.50;54.60;;;;;;5053088;28;20553;-76
2022/05/22 12:09:38;;;;;;;;;;;24.70;54.10;;;;;;5053865;28;20032;-76
2022/05/22 12:12:09;;;;;;;6.72;1.50;;;24.80;55.30;;;;;;5053232;28;19912;-76
2022/05/22 12:15:24;;;;;;;4.40;1.63;;;24.90;53.60;;;;;;5053362;28;20029;-76
2022/05/22 12:17:58;;;;;;;6.88;1.20;;;24.90;53.00;;;;;;5050846;28;20040;-75
2022/05/22 12:20:44;;;;;;;7.63;1.33;;;24.90;51.80;;;;;;5053059;28;20024;-75
2022/05/22 12:23:26;;;;;;;8.00;1.70;;;24.90;52.80;;;;;;5052821;28;20055;-75
2022/05/22 12:26:00;;;;;;;3.20;1.00;;;25.00;50.00;;;;;;5052933;28;20029;-75
2022/05/22 12:28:35;;;;;;;6.75;1.30;;;24.90;49.40;;;;;;5053275;28;20104;-76
2022/05/22 12:31:04;;;;;;;7.43;1.92;;;25.00;50.40;;;;;;5052810;28;20477;-75
2022/05/22 12:33:35;;;;;;;5.13;1.70;;;25.10;50.50;;;;;;5052376;28;20495;-75
2022/05/22 12:36:03;;;;;;;5.00;1.80;;;25.20;50.90;;;;;;5053152;28;20021;-76
2022/05/22 12:38:28;;;;;;;4.63;1.42;;;25.10;51.40;;;;;;5052576;28;20029;-76
2022/05/22 12:41:35;;;;;;;5.45;1.25;;;25.10;52.10;;;;;;5052928;28;20476;-76
2022/05/22 12:44:04;;;;;;;4.28;1.20;;;25.20;49.10;;;;;;5052841;28;20025;-76
2022/05/22 12:46:30;;;;;;;8.68;1.08;;;25.40;47.30;;;;;;5052488;28;20500;-75
2022/05/22 12:49:25;;;;;;;6.18;1.77;;;25.40;48.60;;;;;;5052751;28;20481;-76
2022/05/22 12:52:09;;;;;;;5.47;2.08;;;25.40;50.30;;;;;;5047705;28;20505;-76
2022/05/22 12:54:36;;;;;;;6.18;2.58;;;25.50;50.60;;;;;;5052968;28;20068;-76
2022/05/22 12:57:06;;;;;;;7.88;1.90;;;25.50;50.50;;;;;;5052935;28;20017;-76
2022/05/22 12:59:32;;;;;;;4.03;1.00;;;25.50;50.30;;;;;;5052620;28;20021;-76
2022/05/22 13:01:59;;;;;;;5.13;1.75;;;25.50;49.80;;;;;;5052694;28;20021;-76
2022/05/22 13:04:36;;;;;;;4.63;0.93;;;25.50;48.80;;;;;;5052667;28;20496;-76
2022/05/22 13:07:07;;;;;;;6.28;1.30;;;25.50;48.10;;;;;;5052404;28;20090;-75
2022/05/22 13:09:49;;;;;;;4.97;1.50;;;25.60;49.70;;;;;;5052895;28;20035;-76
2022/05/22 13:12:21;;;;;;;4.68;1.42;;;25.60;50.60;;;;;;5052718;28;20036;-76
2022/05/22 13:15:04;;;;;;;7.18;1.60;;;25.50;50.50;;;;;;5052758;28;20029;-75
2022/05/22 13:17:43;;;;;;;4.43;1.60;;;25.70;51.20;;;;;;5052509;28;20028;-76
2022/05/22 13:20:48;;;;;;;4.78;1.73;;;25.80;51.30;;;;;;5052288;28;20051;-76
2022/05/22 13:23:23;;;;;;;6.65;1.60;;;25.80;50.50;;;;;;5030332;28;20056;-75